Time;durP1;ratioP1;P1;durP2;ratioP2;P2;SDS_P1;SDS_P2;PMS_P1;PMS_P2;Temp;Humidity;BMP_temperature;BMP_pressure;BME280_temperature;BME280_humidity;BME280_pressure;Samples;Min_cycle;Max_cycle;Signal;HPM_P1;HPM_P2
2021/04/07 00:02:43;;;;;;;10.57;4.00;;;;;;;;;;5011738;28;20682;-71
2021/04/07 00:05:29;;;;;;;10.70;3.70;;;;;;;;;;5011601;28;20802;-70
2021/04/07 00:08:16;;;;;;;10.33;4.17;;;;;;;;;;5010769;28;20837;-70
2021/04/07 00:11:00;;;;;;;13.60;5.40;;;;;;;;;;5000041;28;20444;-71
2021/04/07 00:13:45;;;;;;;10.23;5.97;;;;;;;;;;5011137;28;20497;-71
2021/04/07 00:16:30;;;;;;;12.37;4.70;;;;;;;;;;5011041;28;20736;-71
2021/04/07 00:19:15;;;;;;;12.67;6.20;;;;;;;;;;5011354;28;20442;-71
2021/04/07 00:21:59;;;;;;;12.97;5.73;;;;;;;;;;5011365;28;20501;-71
2021/04/07 00:24:44;;;;;;;10.23;4.70;;;;;;;;;;5011413;28;20466;-71
2021/04/07 00:27:28;;;;;;;11.80;5.40;;;;;;;;;;5010382;28;20430;-69
2021/04/07 00:30:13;;;;;;;8.60;5.40;;;;;;;;;;5010795;28;20446;-71
2021/04/07 00:32:58;;;;;;;9.90;4.13;;;;;;;;;;5000056;28;20442;-70
2021/04/07 00:35:43;;;;;;;9.33;3.87;;;;;;;;;;5011289;28;20438;-71
2021/04/07 00:38:28;;;;;;;7.20;3.10;;;;;;;;;;5011434;28;20940;-71
2021/04/07 00:41:13;;;;;;;7.87;2.87;;;;;;;;;;5010888;28;20442;-71
2021/04/07 00:44:02;;;;;;;16.77;8.67;;;;;;;;;;5011536;28;20458;-71
2021/04/07 00:46:46;;;;;;;28.70;14.87;;;;;;;;;;5010574;28;20824;-71
2021/04/07 00:49:31;;;;;;;24.90;16.20;;;;;;;;;;5009882;28;20600;-71
2021/04/07 00:52:16;;;;;;;30.20;13.77;;;;;;;;;;4991472;28;20817;-71
2021/04/07 00:55:01;;;;;;;18.50;9.33;;;;;;;;;;4993455;28;20505;-71
2021/04/07 00:57:46;;;;;;;19.07;7.27;;;;;;;;;;5010201;28;20491;-72
2021/04/07 01:00:31;;;;;;;14.90;7.03;;;;;;;;;;5010698;28;20970;-71
2021/04/07 01:03:15;;;;;;;12.95;6.68;;;;;;;;;;5009722;28;20482;-71
2021/04/07 01:06:00;;;;;;;11.23;4.10;;;;;;;;;;5010324;28;20269;-71
2021/04/07 01:08:45;;;;;;;11.67;3.70;;;;;;;;;;5010841;28;20295;-71
2021/04/07 01:11:29;;;;;;;11.17;3.20;;;;;;;;;;5010634;28;20432;-72
2021/04/07 01:14:14;;;;;;;8.90;3.33;;;;;;;;;;5010695;28;20240;-71
2021/04/07 01:16:59;;;;;;;13.33;3.87;;;;;;;;;;4990941;28;20206;-70
2021/04/07 01:19:44;;;;;;;12.37;4.50;;;;;;;;;;4995698;28;20209;-70
2021/04/07 01:22:31;;;;;;;17.77;6.87;;;;;;;;;;5010837;28;20260;-70
2021/04/07 01:25:17;;;;;;;19.47;9.13;;;;;;;;;;5010884;28;20283;-71
2021/04/07 01:28:01;;;;;;;19.73;9.43;;;;;;;;;;5009830;28;20210;-71
2021/04/07 01:30:48;;;;;;;15.50;6.83;;;;;;;;;;5010298;28;20439;-71
2021/04/07 01:33:33;;;;;;;19.57;10.10;;;;;;;;;;4991186;28;20348;-70
2021/04/07 01:36:21;;;;;;;16.53;6.43;;;;;;;;;;5000569;28;20249;-71
2021/04/07 01:39:06;;;;;;;14.07;7.43;;;;;;;;;;5011230;28;20244;-71
2021/04/07 01:41:51;;;;;;;16.13;7.70;;;;;;;;;;5014634;28;20466;-71
2021/04/07 01:44:36;;;;;;;14.43;6.37;;;;;;;;;;5014146;28;20916;-71
2021/04/07 01:47:21;;;;;;;12.77;5.97;;;;;;;;;;5013901;28;20496;-70
2021/04/07 01:50:07;;;;;;;15.90;6.83;;;;;;;;;;5014186;28;20960;-71
2021/04/07 01:52:51;;;;;;;13.30;5.50;;;;;;;;;;5014367;28;20853;-71
2021/04/07 01:55:36;;;;;;;10.87;6.07;;;;;;;;;;5014497;28;20575;-71
2021/04/07 01:58:21;;;;;;;11.07;6.60;;;;;;;;;;5013732;28;20234;-70
2021/04/07 02:01:06;;;;;;;6.80;3.97;;;;;;;;;;4994704;28;20522;-70
2021/04/07 02:03:50;;;;;;;7.37;3.43;;;;;;;;;;5004350;28;20454;-71
2021/04/07 02:06:35;;;;;;;7.20;2.97;;;;;;;;;;5013761;28;20457;-70
2021/04/07 02:09:19;;;;;;;8.03;3.73;;;;;;;;;;5014106;28;20809;-70
2021/04/07 02:12:05;;;;;;;9.27;4.80;;;;;;;;;;5014370;28;20717;-71
2021/04/07 02:14:50;;;;;;;6.73;4.10;;;;;;;;;;5013233;28;20540;-71
2021/04/07 02:17:34;;;;;;;10.47;4.40;;;;;;;;;;5013352;28;20209;-71
2021/04/07 02:20:19;;;;;;;7.37;3.27;;;;;;;;;;5013852;28;20528;-70
2021/04/07 02:23:04;;;;;;;8.10;3.30;;;;;;;;;;5014037;28;20430;-71
2021/04/07 02:25:48;;;;;;;8.68;4.70;;;;;;;;;;4993042;28;20428;-71
2021/04/07 02:28:33;;;;;;;7.50;3.33;;;;;;;;;;4994394;28;20218;-71
2021/04/07 02:31:18;;;;;;;6.97;2.80;;;;;;;;;;4993696;28;20207;-70
2021/04/07 02:34:02;;;;;;;4.77;2.70;;;;;;;;;;5011966;28;20238;-73
2021/04/07 02:36:47;;;;;;;7.77;2.40;;;;;;;;;;5013142;28;20209;-73
2021/04/07 02:39:31;;;;;;;6.22;3.42;;;;;;;;;;5011899;28;20926;-71
2021/04/07 02:42:19;;;;;;;6.80;3.07;;;;;;;;;;5013334;28;20210;-71
2021/04/07 02:45:04;;;;;;;7.13;2.60;;;;;;;;;;5013223;28;20245;-71
2021/04/07 02:47:49;;;;;;;10.07;2.90;;;;;;;;;;5013036;28;20576;-71
2021/04/07 02:50:33;;;;;;;5.63;2.57;;;;;;;;;;5013332;28;20345;-71
2021/04/07 02:53:18;;;;;;;8.67;3.03;;;;;;;;;;5012389;28;20222;-71
2021/04/07 02:56:02;;;;;;;7.20;3.50;;;;;;;;;;5011609;28;20258;-71
2021/04/07 02:58:47;;;;;;;7.20;3.37;;;;;;;;;;5012472;28;20290;-71
2021/04/07 03:01:31;;;;;;;9.63;3.67;;;;;;;;;;5012856;28;20417;-71
2021/04/07 03:04:16;;;;;;;9.23;4.30;;;;;;;;;;5012874;28;20221;-71
2021/04/07 03:07:01;;;;;;;9.53;3.97;;;;;;;;;;5012508;28;20249;-71
2021/04/07 03:09:45;;;;;;;10.33;4.40;;;;;;;;;;5013070;28;20206;-71
2021/04/07 03:12:30;;;;;;;12.63;4.47;;;;;;;;;;5012691;28;20206;-71
2021/04/07 03:15:14;;;;;;;14.50;6.03;;;;;;;;;;5011085;28;20471;-71
2021/04/07 03:17:59;;;;;;;7.93;3.67;;;;;;;;;;5012079;28;20804;-71
2021/04/07 03:20:44;;;;;;;12.20;3.70;;;;;;;;;;5012752;28;20206;-71
2021/04/07 03:23:28;;;;;;;8.37;3.43;;;;;;;;;;5012590;28;20237;-72
2021/04/07 03:26:13;;;;;;;8.60;3.57;;;;;;;;;;5012413;28;20269;-71
2021/04/07 03:28:57;;;;;;;10.45;5.07;;;;;;;;;;5011509;28;20428;-72
2021/04/07 03:31:42;;;;;;;11.03;4.43;;;;;;;;;;5012523;28;20222;-72
2021/04/07 03:34:26;;;;;;;8.30;3.87;;;;;;;;;;5012287;28;20238;-72
2021/04/07 03:37:12;;;;;;;10.33;3.83;;;;;;;;;;5012319;28;20507;-72
2021/04/07 03:39:56;;;;;;;9.33;3.83;;;;;;;;;;5012600;28;20202;-71
2021/04/07 03:42:41;;;;;;;7.03;2.83;;;;;;;;;;5012476;28;20254;-72
2021/04/07 03:45:25;;;;;;;10.10;3.10;;;;;;;;;;5012457;28;20345;-72
2021/04/07 03:48:10;;;;;;;9.17;2.97;;;;;;;;;;5011859;28;20203;-72
2021/04/07 03:50:56;;;;;;;9.90;2.70;;;;;;;;;;5012766;28;20222;-72
2021/04/07 03:53:41;;;;;;;7.93;2.70;;;;;;;;;;5012109;28;20592;-72
2021/04/07 03:56:27;;;;;;;11.20;2.77;;;;;;;;;;5011825;28;20222;-71
2021/04/07 03:59:11;;;;;;;11.40;3.00;;;;;;;;;;5012010;28;20230;-72
2021/04/07 04:01:56;;;;;;;11.27;3.70;;;;;;;;;;5011746;28;20281;-71
2021/04/07 04:04:40;;;;;;;13.87;3.63;;;;;;;;;;5011856;28;20482;-71
2021/04/07 04:07:25;;;;;;;13.67;3.27;;;;;;;;;;5011532;28;20203;-72
2021/04/07 04:10:11;;;;;;;12.77;3.40;;;;;;;;;;5011874;28;20566;-71
2021/04/07 04:12:55;;;;;;;9.63;3.33;;;;;;;;;;5011860;28;20205;-72
2021/04/07 04:15:41;;;;;;;12.90;4.57;;;;;;;;;;5010753;28;20455;-71
2021/04/07 04:18:25;;;;;;;9.53;3.20;;;;;;;;;;5011705;28;20210;-72
2021/04/07 04:21:10;;;;;;;7.30;3.17;;;;;;;;;;5011916;28;20234;-72
2021/04/07 04:23:54;;;;;;;7.37;2.93;;;;;;;;;;5011298;28;20230;-72
2021/04/07 04:26:39;;;;;;;6.90;2.90;;;;;;;;;;5011242;28;20705;-72
2021/04/07 04:29:24;;;;;;;6.37;2.93;;;;;;;;;;5011735;28;20218;-72
2021/04/07 04:32:08;;;;;;;7.10;3.47;;;;;;;;;;5011425;28;20203;-71
2021/04/07 04:34:53;;;;;;;11.13;4.07;;;;;;;;;;5011289;28;20253;-72
2021/04/07 04:37:38;;;;;;;8.30;4.30;;;;;;;;;;5011092;28;20270;-72
2021/04/07 04:40:22;;;;;;;5.43;3.50;;;;;;;;;;5011150;28;20199;-71
2021/04/07 04:43:07;;;;;;;6.43;2.90;;;;;;;;;;5011377;28;20474;-72
2021/04/07 04:45:52;;;;;;;9.37;3.03;;;;;;;;;;5011200;28;20210;-72
2021/04/07 04:48:37;;;;;;;6.13;2.40;;;;;;;;;;5011905;28;20225;-72
2021/04/07 04:51:21;;;;;;;5.87;2.20;;;;;;;;;;5011674;28;20206;-72
2021/04/07 04:54:06;;;;;;;5.80;2.47;;;;;;;;;;5011113;28;21038;-72
2021/04/07 04:56:50;;;;;;;6.73;3.13;;;;;;;;;;5011059;28;20199;-73
2021/04/07 04:59:35;;;;;;;6.23;2.67;;;;;;;;;;5011300;28;20769;-72
2021/04/07 05:02:20;;;;;;;6.70;2.70;;;;;;;;;;5010593;28;20810;-72
2021/04/07 05:05:05;;;;;;;6.68;4.00;;;;;;;;;;5009396;28;20412;-72
2021/04/07 05:07:49;;;;;;;5.83;3.10;;;;;;;;;;5010529;28;20292;-72
2021/04/07 05:10:33;;;;;;;5.00;3.20;;;;;;;;;;5010360;28;20210;-71
2021/04/07 05:13:18;;;;;;;6.87;3.07;;;;;;;;;;5010893;28;20638;-72
2021/04/07 05:16:04;;;;;;;6.20;3.17;;;;;;;;;;5014193;28;20294;-71
2021/04/07 05:18:48;;;;;;;4.93;3.27;;;;;;;;;;5015218;28;20218;-72
2021/04/07 05:21:33;;;;;;;5.50;3.40;;;;;;;;;;5014667;28;20202;-71
2021/04/07 05:24:17;;;;;;;7.83;4.40;;;;;;;;;;5014995;28;20285;-70
2021/04/07 05:27:02;;;;;;;6.03;4.20;;;;;;;;;;5014080;28;20242;-71
2021/04/07 05:29:46;;;;;;;6.33;4.07;;;;;;;;;;5014937;28;20281;-71
2021/04/07 05:32:32;;;;;;;4.90;3.97;;;;;;;;;;5014551;28;20461;-71
2021/04/07 05:35:16;;;;;;;7.43;4.00;;;;;;;;;;5014628;28;20522;-71
2021/04/07 05:38:01;;;;;;;4.73;3.87;;;;;;;;;;5014207;28;20246;-71
2021/04/07 05:40:45;;;;;;;5.33;3.87;;;;;;;;;;5014626;28;20778;-71
2021/04/07 05:43:30;;;;;;;5.27;4.30;;;;;;;;;;5014492;28;20486;-71
2021/04/07 05:46:14;;;;;;;4.60;4.20;;;;;;;;;;5014248;28;20428;-71
2021/04/07 05:48:59;;;;;;;5.37;4.20;;;;;;;;;;5014488;28;20208;-69
2021/04/07 05:51:44;;;;;;;7.32;5.68;;;;;;;;;;5014418;28;20401;-71
2021/04/07 05:54:28;;;;;;;6.23;4.97;;;;;;;;;;5014093;28;20242;-71
2021/04/07 05:57:13;;;;;;;5.53;4.63;;;;;;;;;;5013799;28;20515;-73
2021/04/07 05:59:57;;;;;;;5.27;4.77;;;;;;;;;;4994749;28;20431;-71
2021/04/07 06:02:42;;;;;;;6.20;4.90;;;;;;;;;;5004641;28;20254;-70
2021/04/07 06:05:28;;;;;;;5.80;5.20;;;;;;;;;;5013954;28;20713;-70
2021/04/07 06:08:13;;;;;;;6.73;5.60;;;;;;;;;;5013410;28;20360;-69
2021/04/07 06:10:57;;;;;;;5.67;5.17;;;;;;;;;;5014064;28;20997;-70
2021/04/07 06:13:42;;;;;;;5.93;5.43;;;;;;;;;;5013816;28;20468;-70
2021/04/07 06:16:26;;;;;;;5.90;5.40;;;;;;;;;;5013508;28;20206;-70
2021/04/07 06:19:11;;;;;;;5.73;5.23;;;;;;;;;;5013329;28;20205;-70
2021/04/07 06:21:56;;;;;;;6.53;5.93;;;;;;;;;;5014125;28;20316;-70
2021/04/07 06:24:41;;;;;;;6.57;5.97;;;;;;;;;;5013367;28;20207;-69
2021/04/07 06:27:25;;;;;;;6.13;5.50;;;;;;;;;;5013337;28;20213;-71
2021/04/07 06:30:10;;;;;;;6.17;5.67;;;;;;;;;;5013677;28;20295;-69
2021/04/07 06:32:55;;;;;;;8.50;7.30;;;;;;;;;;5013531;28;20202;-71
2021/04/07 06:35:40;;;;;;;6.90;5.73;;;;;;;;;;5013205;28;20230;-70
2021/04/07 06:38:26;;;;;;;7.63;6.47;;;;;;;;;;5012870;28;20423;-70
2021/04/07 06:41:10;;;;;;;8.73;6.10;;;;;;;;;;5012509;28;20202;-70
2021/04/07 06:43:57;;;;;;;7.40;5.50;;;;;;;;;;5013144;28;20282;-71
2021/04/07 06:46:42;;;;;;;9.00;5.47;;;;;;;;;;5011895;28;20254;-71
2021/04/07 06:49:27;;;;;;;7.17;4.93;;;;;;;;;;5011137;28;20684;-69
2021/04/07 06:52:13;;;;;;;8.17;5.70;;;;;;;;;;5011702;28;20243;-69
2021/04/07 06:54:58;;;;;;;8.33;6.13;;;;;;;;;;5005841;28;20238;-69
2021/04/07 06:57:43;;;;;;;9.40;7.07;;;;;;;;;;5007537;28;20207;-71
2021/04/07 07:00:28;;;;;;;12.70;6.63;;;;;;;;;;5012010;28;20738;-70
2021/04/07 07:03:13;;;;;;;10.87;7.90;;;;;;;;;;5012469;28;20231;-73
2021/04/07 07:05:58;;;;;;;11.90;7.20;;;;;;;;;;5015579;28;20206;-71
2021/04/07 07:08:43;;;;;;;12.83;7.90;;;;;;;;;;5015917;28;20214;-72
2021/04/07 07:11:28;;;;;;;12.57;8.20;;;;;;;;;;5001798;28;20585;-71
2021/04/07 07:14:14;;;;;;;13.67;7.27;;;;;;;;;;5012746;28;20266;-72
2021/04/07 07:16:58;;;;;;;14.43;5.70;;;;;;;;;;5011963;28;20246;-71
2021/04/07 07:19:48;;;;;;;10.20;4.70;;;;;;;;;;5012803;28;20253;-73
2021/04/07 07:22:32;;;;;;;10.90;3.70;;;;;;;;;;5012530;28;20293;-72
2021/04/07 07:25:17;;;;;;;11.05;4.60;;;;;;;;;;5012121;28;20455;-71
2021/04/07 07:28:03;;;;;;;12.37;4.20;;;;;;;;;;5011901;28;20199;-75
2021/04/07 07:30:48;;;;;;;9.67;3.93;;;;;;;;;;5012716;28;20199;-76
2021/04/07 07:33:40;;;;;;;11.70;4.10;;;;;;;;;;5012361;28;20303;-74
2021/04/07 07:36:25;;;;;;;13.27;4.37;;;;;;;;;;5011770;28;20680;-70
2021/04/07 07:39:09;;;;;;;9.33;3.97;;;;;;;;;;5012003;28;20222;-71
2021/04/07 07:41:57;;;;;;;10.37;3.07;;;;;;;;;;5011478;28;20608;-70
2021/04/07 07:44:43;;;;;;;12.37;3.60;;;;;;;;;;5011722;28;20230;-72
2021/04/07 07:47:30;;;;;;;7.20;2.63;;;;;;;;;;5000403;28;20677;-71
2021/04/07 07:50:15;;;;;;;11.67;3.50;;;;;;;;;;5008817;28;20205;-72
2021/04/07 07:52:59;;;;;;;8.77;3.07;;;;;;;;;;5012080;28;20231;-69
2021/04/07 07:55:45;;;;;;;11.83;2.90;;;;;;;;;;5010500;28;20234;-71
2021/04/07 07:58:29;;;;;;;5.33;1.90;;;;;;;;;;5011620;28;20225;-72
2021/04/07 08:01:16;;;;;;;7.27;2.07;;;;;;;;;;5012129;28;20258;-72
2021/04/07 08:04:05;;;;;;;6.10;2.10;;;;;;;;;;4996127;28;20335;-72
2021/04/07 08:06:50;;;;;;;6.67;1.90;;;;;;;;;;4993061;28;20207;-71
2021/04/07 08:09:34;;;;;;;7.23;2.10;;;;;;;;;;5011456;28;20202;-72
2021/04/07 08:12:19;;;;;;;8.93;2.83;;;;;;;;;;5010845;28;20482;-72
2021/04/07 08:15:05;;;;;;;7.67;2.20;;;;;;;;;;5000788;28;20598;-72
2021/04/07 08:17:50;;;;;;;10.00;2.77;;;;;;;;;;4991117;28;20249;-72
2021/04/07 08:20:37;;;;;;;6.77;2.50;;;;;;;;;;4999804;28;20285;-71
2021/04/07 08:23:23;;;;;;;10.30;3.13;;;;;;;;;;4991861;28;20227;-70
2021/04/07 08:26:09;;;;;;;14.63;3.00;;;;;;;;;;4997910;28;20214;-71
2021/04/07 08:28:54;;;;;;;11.27;3.30;;;;;;;;;;5011529;28;20629;-71
2021/04/07 08:31:39;;;;;;;13.33;3.23;;;;;;;;;;5008854;28;20258;-69
2021/04/07 08:34:25;;;;;;;11.97;3.77;;;;;;;;;;4992000;28;20243;-69
2021/04/07 08:37:09;;;;;;;16.70;4.07;;;;;;;;;;4991486;28;20211;-69
2021/04/07 08:39:54;;;;;;;19.50;5.97;;;;;;;;;;4990986;28;20429;-69
2021/04/07 08:42:40;;;;;;;20.20;4.70;;;;;;;;;;4991621;28;20207;-69
2021/04/07 08:45:25;;;;;;;19.90;4.97;;;;;;;;;;5006572;28;20283;-69
2021/04/07 08:48:18;;;;;;;21.77;5.13;;;;;;;;;;5010437;28;20262;-69
2021/04/07 08:51:04;;;;;;;30.23;6.87;;;;;;;;;;5011353;28;20283;-69
2021/04/07 08:53:50;;;;;;;25.73;6.38;;;;;;;;;;5010547;28;20474;-69
2021/04/07 08:56:37;;;;;;;28.03;5.40;;;;;;;;;;5010462;28;21020;-72
2021/04/07 08:59:22;;;;;;;23.43;6.17;;;;;;;;;;5009685;28;20198;-70
2021/04/07 09:02:07;;;;;;;25.20;6.30;;;;;;;;;;5009536;28;20224;-74
2021/04/07 09:05:02;;;;;;;28.43;6.23;;;;;;;;;;5008129;28;20270;-73
2021/04/07 09:07:53;;;;;;;20.30;4.87;;;;;;;;;;5002488;28;20725;-73
2021/04/07 09:10:41;;;;;;;12.40;3.87;;;;;;;;;;5010881;28;20208;-73
2021/04/07 09:13:26;;;;;;;15.13;4.07;;;;;;;;;;5010666;28;20254;-73
2021/04/07 09:16:11;;;;;;;12.43;3.47;;;;;;;;;;5010501;28;20207;-73
2021/04/07 09:18:55;;;;;;;13.80;3.10;;;;;;;;;;5010860;28;20227;-73
2021/04/07 09:21:40;;;;;;;15.03;4.13;;;;;;;;;;5010249;28;20292;-73
2021/04/07 09:24:28;;;;;;;14.20;3.90;;;;;;;;;;5003322;28;20259;-73
2021/04/07 09:27:19;;;;;;;15.20;4.10;;;;;;;;;;5010579;28;20245;-73
2021/04/07 09:30:04;;;;;;;16.23;3.70;;;;;;;;;;5010571;28;20570;-73
2021/04/07 09:32:49;;;;;;;13.67;3.67;;;;;;;;;;5010849;28;20730;-73
2021/04/07 09:35:33;;;;;;;15.80;4.23;;;;;;;;;;5009466;28;20234;-73
2021/04/07 09:38:18;;;;;;;20.03;4.70;;;;;;;;;;5010451;28;20258;-73
2021/04/07 09:41:04;;;;;;;21.33;5.75;;;;;;;;;;5009310;28;20572;-72
2021/04/07 09:43:50;;;;;;;23.70;5.53;;;;;;;;;;4991089;28;20227;-73
2021/04/07 09:46:34;;;;;;;19.17;4.50;;;;;;;;;;4998620;28;20242;-73
2021/04/07 09:49:19;;;;;;;21.27;4.97;;;;;;;;;;4991016;28;20220;-73
2021/04/07 09:52:03;;;;;;;18.83;4.93;;;;;;;;;;4994183;28;20211;-73
2021/04/07 09:54:48;;;;;;;20.03;4.63;;;;;;;;;;5009991;28;20286;-73
2021/04/07 09:57:34;;;;;;;20.33;4.70;;;;;;;;;;5008750;28;20203;-73
2021/04/07 10:00:18;;;;;;;16.90;4.97;;;;;;;;;;5010619;28;20209;-73
2021/04/07 10:03:03;;;;;;;18.57;4.47;;;;;;;;;;4994471;28;20805;-74
2021/04/07 10:05:47;;;;;;;17.23;4.47;;;;;;;;;;5013330;28;20563;-71
2021/04/07 10:08:32;;;;;;;16.37;5.00;;;;;;;;;;5014402;28;20205;-72
2021/04/07 10:11:20;;;;;;;19.13;4.70;;;;;;;;;;5029349;28;20299;-75
2021/04/07 10:14:06;;;;;;;19.40;5.00;;;;;;;;;;5033734;28;20271;-72
2021/04/07 10:16:51;;;;;;;27.43;5.77;;;;;;;;;;4993760;28;20209;-71
2021/04/07 10:19:35;;;;;;;16.63;5.20;;;;;;;;;;4994310;28;20214;-74
2021/04/07 10:22:20;;;;;;;18.93;5.10;;;;;;;;;;4994023;28;20223;-70
2021/04/07 10:25:12;;;;;;;13.20;3.10;;;;;;;;;;5009968;28;20356;-70
2021/04/07 10:27:57;;;;;;;9.17;2.63;;;;;;;;;;5012991;28;20568;-71
2021/04/07 10:30:42;;;;;;;9.13;3.47;;;;;;;;;;5013659;28;20248;-71
2021/04/07 10:33:26;;;;;;;15.73;4.17;;;;;;;;;;5008233;28;20231;-72
2021/04/07 10:36:11;;;;;;;15.20;4.30;;;;;;;;;;4993328;28;20259;-71
2021/04/07 10:38:57;;;;;;;15.43;3.77;;;;;;;;;;4993522;28;20228;-73
2021/04/07 10:41:44;;;;;;;4.97;2.17;;;;;;;;;;4995682;28;20211;-71
2021/04/07 10:44:29;;;;;;;6.40;2.30;;;;;;;;;;5013206;28;20709;-70
2021/04/07 10:47:15;;;;;;;13.50;2.73;;;;;;;;;;5012484;28;20223;-72
2021/04/07 10:50:00;;;;;;;11.83;3.43;;;;;;;;;;5012936;28;20228;-71
2021/04/07 10:52:45;;;;;;;14.50;4.37;;;;;;;;;;5013219;28;20202;-71
2021/04/07 10:55:30;;;;;;;15.73;4.37;;;;;;;;;;5012731;28;20253;-72
2021/04/07 10:58:24;;;;;;;16.03;4.67;;;;;;;;;;5013049;28;20208;-71
2021/04/07 11:01:09;;;;;;;15.10;4.47;;;;;;;;;;4998045;28;20203;-71
2021/04/07 11:03:54;;;;;;;19.83;4.67;;;;;;;;;;5010401;28;20242;-71
2021/04/07 11:06:38;;;;;;;15.20;4.83;;;;;;;;;;5012022;28;20793;-71
2021/04/07 11:09:27;;;;;;;20.63;4.93;;;;;;;;;;5008907;28;20286;-71
2021/04/07 11:12:12;;;;;;;25.07;5.93;;;;;;;;;;4999927;28;20226;-71
2021/04/07 11:15:02;;;;;;;23.25;6.25;;;;;;;;;;5011646;28;20447;-71
2021/04/07 11:17:50;;;;;;;24.80;5.80;;;;;;;;;;5012668;28;20214;-71
2021/04/07 11:20:39;;;;;;;19.90;5.13;;;;;;;;;;5012300;28;20713;-71
2021/04/07 11:23:23;;;;;;;19.33;5.43;;;;;;;;;;5012571;28;20309;-71
2021/04/07 11:26:08;;;;;;;20.80;5.23;;;;;;;;;;5003730;28;20371;-71
2021/04/07 11:28:52;;;;;;;24.70;6.07;;;;;;;;;;4992997;28;20705;-72
2021/04/07 11:31:37;;;;;;;19.83;4.50;;;;;;;;;;4992811;28;20975;-71
2021/04/07 11:34:26;;;;;;;12.70;3.33;;;;;;;;;;4992858;28;20239;-71
2021/04/07 11:37:18;;;;;;;21.33;4.33;;;;;;;;;;4992053;28;20789;-71
2021/04/07 11:40:04;;;;;;;20.83;4.83;;;;;;;;;;4993167;28;20207;-71
2021/04/07 11:42:58;;;;;;;16.23;4.50;;;;;;;;;;4992475;28;20255;-71
2021/04/07 11:45:42;;;;;;;16.53;5.20;;;;;;;;;;4992490;28;20422;-71
2021/04/07 11:48:27;;;;;;;16.90;4.83;;;;;;;;;;4992499;28;20470;-71
2021/04/07 11:51:12;;;;;;;14.73;4.27;;;;;;;;;;4992340;28;20212;-71
2021/04/07 11:53:57;;;;;;;21.10;8.10;;;;;;;;;;4992126;28;20252;-71
2021/04/07 11:56:42;;;;;;;27.07;14.73;;;;;;;;;;4992009;28;20758;-71
2021/04/07 11:59:27;;;;;;;23.33;13.33;;;;;;;;;;4992485;28;20201;-72
2021/04/07 12:02:11;;;;;;;14.37;4.13;;;;;;;;;;5001811;28;20234;-71
2021/04/07 12:04:56;;;;;;;14.47;4.20;;;;;;;;;;5011531;28;20221;-71
2021/04/07 12:07:40;;;;;;;16.27;3.83;;;;;;;;;;5011327;28;20198;-72
2021/04/07 12:10:26;;;;;;;17.63;5.07;;;;;;;;;;5019962;28;20219;-72
2021/04/07 12:13:10;;;;;;;18.90;6.13;;;;;;;;;;5031265;28;20233;-72
2021/04/07 12:15:55;;;;;;;13.67;5.10;;;;;;;;;;5020732;28;20283;-74
2021/04/07 12:18:39;;;;;;;13.43;5.20;;;;;;;;;;4992025;28;20282;-71
2021/04/07 12:21:24;;;;;;;16.30;6.97;;;;;;;;;;4992002;28;20250;-71
2021/04/07 12:24:09;;;;;;;11.00;3.90;;;;;;;;;;4991285;28;20251;-72
2021/04/07 12:26:54;;;;;;;12.77;3.50;;;;;;;;;;4991360;28;20227;-73
2021/04/07 12:29:38;;;;;;;12.17;4.00;;;;;;;;;;4991709;28;20198;-73
2021/04/07 12:32:23;;;;;;;10.83;3.77;;;;;;;;;;4992182;28;20210;-72
2021/04/07 12:35:09;;;;;;;19.63;7.90;;;;;;;;;;4991502;28;20274;-74
2021/04/07 12:37:53;;;;;;;14.60;5.90;;;;;;;;;;4991402;28;20296;-72
2021/04/07 12:40:39;;;;;;;63.83;36.43;;;;;;;;;;5023870;28;20340;-69
2021/04/07 12:43:24;;;;;;;20.37;9.23;;;;;;;;;;5030884;28;20233;-70
2021/04/07 12:46:08;;;;;;;28.00;13.57;;;;;;;;;;5024551;28;20210;-69
2021/04/07 12:48:53;;;;;;;23.25;11.75;;;;;;;;;;5010278;28;20897;-69
2021/04/07 12:51:38;;;;;;;19.73;8.97;;;;;;;;;;5021865;28;20251;-71
2021/04/07 12:54:22;;;;;;;14.63;5.50;;;;;;;;;;5011017;28;20246;-71
2021/04/07 12:57:07;;;;;;;10.00;3.70;;;;;;;;;;5010644;28;20222;-71
2021/04/07 12:59:53;;;;;;;11.13;4.40;;;;;;;;;;5013984;28;20290;-69
2021/04/07 13:02:37;;;;;;;10.50;2.77;;;;;;;;;;5004486;28;20209;-69
2021/04/07 13:05:22;;;;;;;11.83;3.30;;;;;;;;;;5010794;28;20203;-69
2021/04/07 13:08:06;;;;;;;10.80;3.67;;;;;;;;;;5006333;28;20249;-69
2021/04/07 13:10:51;;;;;;;13.90;3.50;;;;;;;;;;5014754;28;20569;-69
2021/04/07 13:13:35;;;;;;;13.03;3.13;;;;;;;;;;5008723;28;20316;-68
2021/04/07 13:16:21;;;;;;;12.23;2.93;;;;;;;;;;5001035;28;20227;-68
2021/04/07 13:19:08;;;;;;;12.47;3.50;;;;;;;;;;4997381;28;20872;-68
2021/04/07 13:21:52;;;;;;;14.00;4.23;;;;;;;;;;5009700;28;20204;-68
2021/04/07 13:24:37;;;;;;;12.10;3.30;;;;;;;;;;5008223;28;20231;-68
2021/04/07 13:27:21;;;;;;;11.30;3.00;;;;;;;;;;5007864;28;20254;-68
2021/04/07 13:30:06;;;;;;;15.10;3.87;;;;;;;;;;5005936;28;20783;-68
2021/04/07 13:32:57;;;;;;;11.40;3.10;;;;;;;;;;5007446;28;20282;-68
2021/04/07 13:35:45;;;;;;;12.82;4.10;;;;;;;;;;5009860;28;20487;-68
2021/04/07 13:38:37;;;;;;;13.47;3.70;;;;;;;;;;5009316;28;20275;-69
2021/04/07 13:41:36;;;;;;;15.27;4.07;;;;;;;;;;5012804;28;20560;-68
2021/04/07 13:44:21;;;;;;;15.57;3.97;;;;;;;;;;5000208;28;20563;-70
2021/04/07 13:47:06;;;;;;;12.90;3.70;;;;;;;;;;5009365;28;20286;-69
2021/04/07 13:49:51;;;;;;;12.13;3.30;;;;;;;;;;5002669;28;20269;-69
2021/04/07 13:52:35;;;;;;;11.87;3.83;;;;;;;;;;4994676;28;20214;-69
2021/04/07 13:55:24;;;;;;;11.17;3.60;;;;;;;;;;5009207;28;20240;-69
2021/04/07 13:58:09;;;;;;;11.57;3.57;;;;;;;;;;5013990;28;20225;-68
2021/04/07 14:00:53;;;;;;;15.63;3.90;;;;;;;;;;5014464;28;20682;-69
2021/04/07 14:03:38;;;;;;;12.57;4.20;;;;;;;;;;5014950;28;20279;-68
2021/04/07 14:06:23;;;;;;;11.50;4.27;;;;;;;;;;5012297;28;20211;-71
2021/04/07 14:09:08;;;;;;;14.07;4.13;;;;;;;;;;5013496;28;20209;-67
2021/04/07 14:11:52;;;;;;;16.87;3.90;;;;;;;;;;5005337;28;20217;-69
2021/04/07 14:14:37;;;;;;;10.80;2.60;;;;;;;;;;5012855;28;20307;-72
2021/04/07 14:17:21;;;;;;;12.27;2.90;;;;;;;;;;5012322;28;20250;-73
2021/04/07 14:20:07;;;;;;;13.63;6.20;;;;;;;;;;5013161;28;20441;-70
2021/04/07 14:22:52;;;;;;;10.10;3.93;;;;;;;;;;5013599;28;20442;-72
2021/04/07 14:25:37;;;;;;;10.60;3.67;;;;;;;;;;5014108;28;20649;-74
2021/04/07 14:28:22;;;;;;;13.10;3.70;;;;;;;;;;5023300;28;20210;-68
2021/04/07 14:31:07;;;;;;;9.77;3.10;;;;;;;;;;5016575;28;20211;-67
2021/04/07 14:33:51;;;;;;;10.83;3.30;;;;;;;;;;5013904;28;20228;-69
2021/04/07 14:36:37;;;;;;;15.07;3.80;;;;;;;;;;5013334;28;20269;-69
2021/04/07 14:39:23;;;;;;;10.27;4.20;;;;;;;;;;5013530;28;20202;-69
2021/04/07 14:42:08;;;;;;;10.13;2.97;;;;;;;;;;5013624;28;20712;-69
2021/04/07 14:44:52;;;;;;;7.07;2.60;;;;;;;;;;5013634;28;20226;-69
2021/04/07 14:47:36;;;;;;;6.47;2.50;;;;;;;;;;5012746;28;20199;-68
2021/04/07 14:50:24;;;;;;;10.73;2.67;;;;;;;;;;5013510;28;20199;-69
2021/04/07 14:53:13;;;;;;;11.13;3.22;;;;;;;;;;5012512;28;20420;-69
2021/04/07 14:56:00;;;;;;;12.23;3.30;;;;;;;;;;5012645;28;20230;-68
2021/04/07 14:58:44;;;;;;;9.60;3.10;;;;;;;;;;5013346;28;20203;-68
2021/04/07 15:01:29;;;;;;;7.60;2.60;;;;;;;;;;5013248;28;20729;-69
2021/04/07 15:04:13;;;;;;;9.63;2.83;;;;;;;;;;5013105;28;20231;-69
2021/04/07 15:06:58;;;;;;;9.63;3.03;;;;;;;;;;5012006;28;20471;-68
2021/04/07 15:09:42;;;;;;;7.03;2.50;;;;;;;;;;5013043;28;20234;-68
2021/04/07 15:12:28;;;;;;;9.43;3.00;;;;;;;;;;5012970;28;20214;-68
2021/04/07 15:15:13;;;;;;;8.57;2.90;;;;;;;;;;5012901;28;20222;-69
2021/04/07 15:17:57;;;;;;;11.00;3.00;;;;;;;;;;5012404;28;20221;-68
2021/04/07 15:20:42;;;;;;;11.70;3.00;;;;;;;;;;5012846;28;20218;-68
2021/04/07 15:23:26;;;;;;;15.87;3.23;;;;;;;;;;5012550;28;20222;-68
2021/04/07 15:26:12;;;;;;;9.67;2.83;;;;;;;;;;5012583;28;20226;-68
2021/04/07 15:28:57;;;;;;;9.30;2.80;;;;;;;;;;5012986;28;20198;-68
2021/04/07 15:31:43;;;;;;;9.33;2.53;;;;;;;;;;5012388;28;20271;-69
2021/04/07 15:34:28;;;;;;;9.73;3.30;;;;;;;;;;5012216;28;20693;-69
2021/04/07 15:37:13;;;;;;;10.47;2.93;;;;;;;;;;5012272;28;20253;-69
2021/04/07 15:39:57;;;;;;;7.40;2.40;;;;;;;;;;5012652;28;20202;-69
2021/04/07 15:42:41;;;;;;;6.63;2.70;;;;;;;;;;5012701;28;20218;-69
2021/04/07 15:45:27;;;;;;;8.33;3.77;;;;;;;;;;5012743;28;20234;-69
2021/04/07 15:48:13;;;;;;;6.37;2.80;;;;;;;;;;5012055;28;20392;-69
2021/04/07 15:50:59;;;;;;;10.63;3.10;;;;;;;;;;5012459;28;20207;-69
2021/04/07 15:53:43;;;;;;;11.93;3.35;;;;;;;;;;5011106;28;20427;-69
2021/04/07 15:56:28;;;;;;;8.13;3.03;;;;;;;;;;5011458;28;20273;-69
2021/04/07 15:59:12;;;;;;;9.50;2.73;;;;;;;;;;5011491;28;20688;-69
2021/04/07 16:01:58;;;;;;;9.70;2.83;;;;;;;;;;5012060;28;20232;-69
2021/04/07 16:04:42;;;;;;;8.00;2.80;;;;;;;;;;5012010;28;20222;-69
2021/04/07 16:07:27;;;;;;;8.77;3.07;;;;;;;;;;5011530;28;20211;-69
2021/04/07 16:10:12;;;;;;;8.73;3.03;;;;;;;;;;5011749;28;20622;-69
2021/04/07 16:12:56;;;;;;;6.50;2.50;;;;;;;;;;5011819;28;20578;-69
2021/04/07 16:15:41;;;;;;;7.50;2.73;;;;;;;;;;5011942;28;20246;-69
2021/04/07 16:18:26;;;;;;;9.23;2.97;;;;;;;;;;5011872;28;20203;-69
2021/04/07 16:21:12;;;;;;;7.90;2.60;;;;;;;;;;5011797;28;20690;-69
2021/04/07 16:23:56;;;;;;;7.30;2.83;;;;;;;;;;5011660;28;20246;-69